createdAt,value
2023-05-24T04:05:55.117Z,7.10
2023-05-24T04:06:55.018Z,7.04
2023-05-24T04:07:55.172Z,6.96
2023-05-24T04:10:54.823Z,7.00
2023-05-24T04:12:38.158Z,7.10
2023-05-24T04:13:38.105Z,7.10
2023-05-24T04:15:38.074Z,7.14
2023-05-24T04:16:37.992Z,7.18
2023-05-24T04:17:38.100Z,7.14
2023-05-24T04:18:38.000Z,7.15
2023-05-24T04:19:37.886Z,7.11
2023-05-24T04:20:37.821Z,7.15
2023-05-24T04:21:37.743Z,7.13
2023-05-24T04:22:37.679Z,7.22
2023-05-24T04:23:37.633Z,7.25
2023-05-24T04:24:37.615Z,7.15
2023-05-24T04:25:37.534Z,7.28
2023-05-24T04:26:37.487Z,7.31
2023-05-24T04:27:37.459Z,7.36
2023-05-24T04:28:37.390Z,7.31
2023-05-24T04:29:37.359Z,7.33
2023-05-24T04:30:37.298Z,7.31
2023-05-24T04:31:37.329Z,7.26
2023-05-24T04:32:37.249Z,7.32
2023-05-24T04:33:37.164Z,7.41
2023-05-24T04:34:37.113Z,7.47
2023-05-24T04:35:39.694Z,7.47
2023-05-24T04:36:37.024Z,7.51
2023-05-24T04:37:37.008Z,7.48
2023-05-24T04:39:33.141Z,7.62
2023-05-24T04:42:22.053Z,7.77
2023-05-24T04:43:22.020Z,7.77
2023-05-24T04:44:21.962Z,7.83
2023-05-24T04:45:21.929Z,7.88
2023-05-24T04:50:31.667Z,8.14
2023-05-24T04:51:31.615Z,8.24
2023-05-24T04:52:31.566Z,8.27
2023-05-24T04:54:39.951Z,8.34
2023-05-24T04:55:39.885Z,8.41
2023-05-24T04:56:39.852Z,8.49
2023-05-24T04:57:39.796Z,8.60
2023-05-24T04:58:39.746Z,8.52
2023-05-24T04:59:39.697Z,8.59
2023-05-24T05:00:39.759Z,8.59
2023-05-24T05:01:39.644Z,8.66
2023-05-24T05:02:39.638Z,8.71
2023-05-24T05:03:39.615Z,8.71
2023-05-24T05:04:39.467Z,8.90
2023-05-24T05:05:39.417Z,8.95
2023-05-24T05:06:39.372Z,8.93
2023-05-24T05:07:39.327Z,9.02
2023-05-24T05:08:39.284Z,8.96
2023-05-24T05:09:39.235Z,9.02
2023-05-24T05:11:51.621Z,9.21
2023-05-24T05:12:51.559Z,9.22
2023-05-24T05:13:51.509Z,9.21
2023-05-24T05:14:51.471Z,9.29
2023-05-24T05:15:51.427Z,9.31
2023-05-24T05:16:54.112Z,9.33
2023-05-24T05:17:51.407Z,9.44
2023-05-24T05:18:51.289Z,9.39
2023-05-24T05:20:51.192Z,9.67
2023-05-24T05:21:51.139Z,9.54
2023-05-24T05:22:51.096Z,9.66
2023-05-24T05:23:51.059Z,9.76
2023-05-24T05:24:51.002Z,9.81
2023-05-24T05:25:50.953Z,9.87
2023-05-24T05:26:50.909Z,9.95
2023-05-24T05:27:50.884Z,9.95
2023-05-24T05:28:50.823Z,9.99
2023-05-24T05:29:50.778Z,10.06
2023-05-24T05:30:50.750Z,10.02
2023-05-24T05:31:50.719Z,10.03
2023-05-24T17:00:54.245Z,18.36
2023-05-24T17:01:54.113Z,18.67
2023-05-24T17:02:53.974Z,19.38
2023-05-24T17:03:53.970Z,20.12
2023-05-24T17:04:53.839Z,20.37
2023-05-24T20:17:18.582Z,14.78
2023-05-24T20:18:18.516Z,14.67
2023-05-24T20:19:18.457Z,14.51
2023-05-24T20:20:18.468Z,14.58
2023-05-24T20:21:18.402Z,14.49
2023-05-24T20:22:18.383Z,14.51
2023-05-24T20:23:18.486Z,14.45
2023-05-24T20:24:18.275Z,14.41
2023-05-24T20:25:18.198Z,14.34
2023-05-24T20:26:18.146Z,14.30
2023-05-24T20:27:18.110Z,14.33
2023-05-24T20:28:29.563Z,14.25
2023-05-24T20:29:18.028Z,14.20
2023-05-24T20:30:17.994Z,14.12
2023-05-24T20:31:17.940Z,14.13
2023-05-24T20:32:17.888Z,14.08
2023-05-24T20:33:17.865Z,14.01
2023-05-24T20:34:17.805Z,13.93
2023-05-24T20:35:17.766Z,13.95
2023-05-24T20:36:17.721Z,13.91
2023-05-24T20:37:17.689Z,13.79
2023-05-24T20:38:17.633Z,13.79
2023-05-24T20:39:17.588Z,13.79
2023-05-24T20:40:17.563Z,13.73
2023-05-24T20:42:03.538Z,13.75
2023-05-24T20:43:00.841Z,13.71
2023-05-24T20:44:00.797Z,13.64
2023-05-24T20:45:00.745Z,13.70
2023-05-24T20:46:00.732Z,13.65
2023-05-24T20:47:00.673Z,13.52
2023-05-24T20:48:00.661Z,13.52
2023-05-24T20:49:00.780Z,13.52
2023-05-24T20:50:00.543Z,13.54
2023-05-24T20:51:00.496Z,13.37
2023-05-24T20:52:00.450Z,13.52
2023-05-24T20:53:00.399Z,13.49
2023-05-24T20:54:00.361Z,13.36
2023-05-24T20:55:00.326Z,13.43
2023-05-24T20:56:00.272Z,13.40
2023-05-24T20:57:00.231Z,13.45
2023-05-24T20:58:00.184Z,13.39
2023-05-24T20:59:00.164Z,13.31
2023-05-24T21:00:00.130Z,13.30
2023-05-24T21:01:00.096Z,13.28
2023-05-24T21:02:00.044Z,13.31
2023-05-24T21:03:00.121Z,13.20
2023-05-24T21:03:59.921Z,13.21
2023-05-24T21:04:59.897Z,13.19
2023-05-24T21:05:59.842Z,13.19
2023-05-24T21:06:59.798Z,13.20
2023-05-24T21:07:59.745Z,13.16
2023-05-24T21:08:59.703Z,13.12
2023-05-24T21:09:59.660Z,13.11
2023-05-24T21:10:59.622Z,13.13
2023-05-24T21:11:59.568Z,13.06
2023-05-24T21:12:59.550Z,13.13
2023-05-24T21:13:59.495Z,13.16
2023-05-24T21:14:59.447Z,13.02
2023-05-24T21:15:59.402Z,13.03
2023-05-24T21:16:59.416Z,13.03
2023-05-24T21:17:59.412Z,13.02
2023-05-24T21:18:59.264Z,13.08
2023-05-24T21:19:59.225Z,13.06
2023-05-24T21:20:59.195Z,13.03
2023-05-24T21:21:59.141Z,13.01
2023-05-24T21:22:59.116Z,13.03
2023-05-24T21:23:59.045Z,13.02
2023-05-24T21:24:59.026Z,12.90
2023-05-24T21:25:58.960Z,12.91
2023-05-24T21:26:58.911Z,12.95
2023-05-24T21:27:58.872Z,12.87
2023-05-24T21:28:58.855Z,12.93
2023-05-24T21:29:58.789Z,12.91
2023-05-24T21:30:58.786Z,12.88
2023-05-24T21:31:58.694Z,12.93
2023-05-24T21:32:58.755Z,12.91
2023-05-24T21:33:58.606Z,12.90
2023-05-24T21:34:58.562Z,12.83
2023-05-24T21:35:58.530Z,12.81
2023-05-24T21:36:58.505Z,12.81
2023-05-24T21:37:58.431Z,12.84
2023-05-24T21:38:58.425Z,12.73
2023-05-24T21:39:58.408Z,12.72
2023-05-24T21:40:58.306Z,12.72
2023-05-24T21:41:58.259Z,12.65
2023-05-24T21:42:58.212Z,12.65
2023-05-24T21:43:58.170Z,12.62
2023-05-24T21:44:58.127Z,12.58
2023-05-24T21:45:58.084Z,12.63
2023-05-24T21:46:58.102Z,12.54
2023-05-24T21:47:58.102Z,12.53
2023-05-24T21:48:57.958Z,12.54
2023-05-24T21:49:57.906Z,12.47
2023-05-24T21:50:57.880Z,12.48
2023-05-24T21:51:57.817Z,12.37
2023-05-24T21:52:57.874Z,12.36
2023-05-24T21:53:57.730Z,12.33
2023-05-24T21:54:57.687Z,12.32
2023-05-24T21:55:57.642Z,12.35
2023-05-24T21:56:57.594Z,12.33
2023-05-24T21:57:57.564Z,12.39
2023-05-24T21:58:57.522Z,12.35
2023-05-24T21:59:57.472Z,12.30
2023-05-24T22:00:57.440Z,12.33
2023-05-24T22:01:57.436Z,12.23
2023-05-24T22:02:57.396Z,12.23
2023-05-24T22:03:57.461Z,12.21
2023-05-24T22:04:57.242Z,12.21
2023-05-24T22:05:57.202Z,12.28
2023-05-24T22:06:57.158Z,12.18
2023-05-24T22:07:57.126Z,12.21
2023-05-24T22:08:57.095Z,12.21
2023-05-24T22:09:57.138Z,12.11
2023-05-24T22:10:57.005Z,12.14
2023-05-24T22:11:56.987Z,12.12
2023-05-24T22:12:56.910Z,12.07
2023-05-24T22:13:56.854Z,12.00
2023-05-24T22:14:56.808Z,11.96
2023-05-24T22:15:56.819Z,12.02
2023-05-24T22:16:56.733Z,11.95
2023-05-24T22:17:56.749Z,12.05
2023-05-24T22:18:56.632Z,11.99
2023-05-24T22:19:56.611Z,11.99
2023-05-24T22:20:56.535Z,11.89
2023-05-24T22:21:56.504Z,11.93
2023-05-24T22:22:56.451Z,11.91
2023-05-24T22:23:56.401Z,11.88
2023-05-24T22:24:56.433Z,11.91
2023-05-24T22:25:56.321Z,11.88
2023-05-24T22:26:56.273Z,11.77
2023-05-24T22:27:56.233Z,11.81
2023-05-24T22:28:56.183Z,11.74
2023-05-24T22:29:56.144Z,11.74
2023-05-24T22:30:56.096Z,11.74
2023-05-24T22:31:56.152Z,11.73
2023-05-24T22:32:56.050Z,11.65
2023-05-24T22:33:55.963Z,11.63
2023-05-24T22:34:55.920Z,11.65
2023-05-24T22:35:55.884Z,11.70
2023-05-24T22:36:55.830Z,11.60
2023-05-24T22:37:55.790Z,11.59
2023-05-24T22:38:55.753Z,11.56
2023-05-24T22:39:55.704Z,11.60
2023-05-24T22:40:55.688Z,11.59
2023-05-24T22:41:55.616Z,11.55
2023-05-24T22:42:55.570Z,11.53
2023-05-24T22:43:55.525Z,11.52
2023-05-24T22:44:55.476Z,11.58
2023-05-24T22:45:55.442Z,11.45
2023-05-24T22:46:55.430Z,11.48
2023-05-24T22:47:55.419Z,11.59
2023-05-24T22:48:55.298Z,11.45
2023-05-24T22:49:55.263Z,11.45
2023-05-24T22:50:55.214Z,11.49
2023-05-24T22:51:55.165Z,11.45
2023-05-24T22:52:55.123Z,11.44
2023-05-24T22:53:55.079Z,11.48
2023-05-24T22:54:55.030Z,11.40
2023-05-24T22:55:54.987Z,11.33
2023-05-24T22:56:54.978Z,11.35
2023-05-24T22:57:54.902Z,11.33
2023-05-24T22:58:54.857Z,11.26
2023-05-24T22:59:54.818Z,11.34
2023-05-24T23:00:54.764Z,11.22
2023-05-24T23:01:54.804Z,11.30
2023-05-24T23:02:54.730Z,11.30
2023-05-24T23:03:59.978Z,11.25
2023-05-24T23:04:54.630Z,11.22
2023-05-24T23:05:54.541Z,11.20
2023-05-24T23:06:54.494Z,11.19
2023-05-24T23:07:54.452Z,11.25
2023-05-24T23:08:54.408Z,11.18
2023-05-24T23:09:54.368Z,11.16
2023-05-24T23:10:54.326Z,11.07
2023-05-24T23:11:54.280Z,11.10
2023-05-24T23:12:54.261Z,11.08
2023-05-24T23:13:54.184Z,11.04
2023-05-24T23:14:54.136Z,11.10
2023-05-24T23:15:54.095Z,11.05
2023-05-24T23:16:54.071Z,11.04
2023-05-24T23:17:54.034Z,11.01
2023-05-24T23:18:53.958Z,11.04
2023-05-24T23:19:54.017Z,11.02
2023-05-24T23:20:53.868Z,10.92
2023-05-24T23:21:53.824Z,11.00
2023-05-24T23:22:53.777Z,10.86
2023-05-24T23:23:53.733Z,10.89
2023-05-24T23:24:53.691Z,10.92
